Flight Track Log - Related Links

Times and Time Zones

All times are in EDT time to prevent confusion due to time zone crossing. See the ASQ5678 flight status page for this flight to view local times or setup timezone preferences in your user account.

Time Position Orientation Groundspeed Altitude Reporting Facility
EDT Latitude Longitude Course Direction KTS MPH feet Rate Location/Type
Wed 06:22:45 PM 40.7167 -74.1333 258° West 176 203 1,900  Level New York TRACON
Wed 06:23:45 PM 40.7667 -74.0833 37° Northeast 248 285 3,100 2,000 Climbing New York TRACON
Wed 06:25:00 PM 40.6834 -74.6605 270° West  Level FlightAware Approximate
Wed 06:25:51 PM 40.7706 -74.2592 272° West 252 290 8,100  Level New York Center
Wed 06:26:00 PM 40.6834 -74.7840 270° West  Level FlightAware Approximate
Wed 06:26:49 PM 40.7594 -74.3489 261° West 271 312 10,300  Level New York Center
Wed 06:27:00 PM 40.6834 -74.9074 270° West  Level FlightAware Approximate
Wed 06:27:50 PM 40.7475 -74.4717 263° West 312 359 11,400  Level New York Center
Wed 06:28:00 PM 40.6729 -75.0294 258° West  Level FlightAware Approximate
Wed 06:28:50 PM 40.7375 -74.5861 263° West 344 396 13,200  Level New York Center
Wed 06:29:51 PM 40.7228 -74.7194 262° West 349 402 15,200 1,736 Climbing New York Center
Wed 06:30:51 PM 40.7106 -74.8283 262° West 349 402 16,700 1,500 Climbing New York Center
Wed 06:31:51 PM 40.6953 -74.9697 262° West 349 402 18,200 1,373 Climbing New York Center
Wed 06:32:49 PM 40.6761 -75.0944 259° West 349 402 19,400 1,261 Climbing New York Center
Wed 06:33:50 PM 40.6217 -75.2139 239° Southwest 364 419 20,700 1,250 Climbing New York Center
Wed 06:34:49 PM 40.5692 -75.3336 240° Southwest 364 419 21,900 1,311 Climbing New York Center
Wed 06:35:49 PM 40.5125 -75.4553 239° Southwest 381 438 23,300 1,650 Climbing New York Center
Wed 06:36:49 PM 40.4600 -75.5692 239° Southwest 381 438 25,200 1,800 Climbing New York Center
Wed 06:37:49 PM 40.4094 -75.6800 239° Southwest 376 433 26,900 1,686 Climbing New York Center
Wed 06:38:50 PM 40.3592 -75.7883 239° Southwest 364 419 28,600 1,736 Climbing New York Center
Wed 06:39:50 PM 40.3108 -75.8908 238° Southwest 351 404 30,400 1,850 Climbing New York Center
Wed 06:40:50 PM 40.2653 -75.9828 237° Southwest 346 398 32,300 1,884 Climbing New York Center
Wed 06:41:51 PM 40.2192 -76.0797 238° Southwest 326 375 34,200 1,537 Climbing New York Center
Wed 06:42:51 PM 40.1800 -76.1611 238° Southwest 321 369 35,400 923 Climbing New York Center
Wed 06:43:48 PM 40.1317 -76.2633 238° Southwest 306 352 36,000 209 Climbing New York Center
Wed 06:45:43 PM 40.0481 -76.4561 241° Southwest 327 376 36,000  Level Washington Center
Wed 06:46:40 PM 39.9950 -76.5664 238° Southwest 352 405 36,000  Level Washington Center
Wed 06:47:41 PM 39.9422 -76.6767 238° Southwest 359 413 36,000  Level Washington Center
Wed 06:48:42 PM 39.8828 -76.7975 237° Southwest 359 413 36,000  Level Washington Center
Wed 06:49:40 PM 39.8294 -76.9100 238° Southwest 364 419 36,000  Level Washington Center
Wed 06:50:41 PM 39.7781 -77.0197 239° Southwest 364 419 36,000  Level Washington Center
Wed 06:51:42 PM 39.7247 -77.1347 239° Southwest 364 419 36,000  Level Washington Center
Wed 06:52:43 PM 39.6711 -77.2467 238° Southwest 370 426 36,000  Level Washington Center
Wed 06:53:40 PM 39.6217 -77.3561 240° Southwest 370 426 36,000  Level Washington Center
Wed 06:54:41 PM 39.5678 -77.4653 237° Southwest 365 420 36,000  Level Washington Center
Wed 06:55:42 PM 39.5161 -77.5742 238° Southwest 365 420 36,000  Level Washington Center
Wed 06:56:40 PM 39.4642 -77.6828 238° Southwest 365 420 36,000  Level Washington Center
Wed 06:57:41 PM 39.4122 -77.7942 239° Southwest 360 414 36,000  Level Washington Center
Wed 06:58:42 PM 39.3622 -77.9056 240° Southwest 360 414 36,000  Level Washington Center
Wed 06:59:42 PM 39.3183 -78.0167 243° Southwest 355 409 36,000  Level Washington Center
Wed 07:00:40 PM 39.2722 -78.1333 243° Southwest 355 409 36,000  Level Washington Center
Wed 07:01:41 PM 39.2281 -78.2469 243° Southwest 360 414 36,000  Level Washington Center
Wed 07:02:42 PM 39.1906 -78.3367 242° Southwest 360 414 36,000  Level Washington Center
Wed 07:03:40 PM 39.1353 -78.4764 243° Southwest 360 414 36,000  Level Washington Center
Wed 07:04:41 PM 39.0886 -78.5922 243° Southwest 360 414 36,000  Level Washington Center
Wed 07:05:42 PM 39.0583 -78.7167 253° West 360 414 36,000  Level Washington Center
Wed 07:06:40 PM 39.0383 -78.8467 259° West 365 420 36,000  Level Washington Center
Wed 07:07:41 PM 39.0181 -78.9767 259° West 370 426 36,000  Level Washington Center
Wed 07:08:41 PM 38.9953 -79.1092 258° West 375 432 36,000 -50 Level Washington Center
Wed 07:09:42 PM 38.9728 -79.2417 258° West 375 432 35,900 -545 Descending Washington Center
Wed 07:10:42 PM 38.9519 -79.3742 259° West 381 438 34,900 -966 Descending Washington Center
Wed 07:11:40 PM 38.9289 -79.5064 257° West 381 438 34,000 -454 Descending Washington Center
Wed 07:12:41 PM 38.9053 -79.6492 258° West 392 451 34,000  Level Washington Center
Wed 07:13:41 PM 38.8819 -79.7839 257° West 399 459 34,000  Level Washington Center
Wed 07:14:52 PM 38.8500 -79.9400 255° West 402 463 34,000  Level Indianapolis Center
Wed 07:15:54 PM 38.8269 -80.0792 258° West 400 460 34,000  Level Indianapolis Center
Wed 07:16:56 PM 38.8158 -80.2217 264° West 402 463 34,000  Level Indianapolis Center
Wed 07:17:58 PM 38.8128 -80.3617 268° West 396 456 34,000  Level Indianapolis Center
Wed 07:19:01 PM 38.8083 -80.5031 268° West 396 456 34,000  Level Indianapolis Center
Wed 07:20:02 PM 38.8036 -80.6747 268° West 398 458 34,000 -341 Level Indianapolis Center
Wed 07:21:04 PM 38.7897 -80.8164 263° West 407 468 33,300 -823 Descending Indianapolis Center
Wed 07:22:06 PM 38.7686 -80.9594 259° West 410 472 32,300 -1,016 Descending Indianapolis Center
Wed 07:23:08 PM 38.7478 -81.1017 259° West 408 470 31,200 -968 Descending Indianapolis Center
Wed 07:24:10 PM 38.7261 -81.2453 259° West 406 467 30,300 -871 Descending Indianapolis Center
Wed 07:25:12 PM 38.7042 -81.3867 259° West 409 471 29,400 -968 Descending Indianapolis Center
Wed 07:26:14 PM 38.6775 -81.5619 259° West 424 488 28,300 -968 Descending Indianapolis Center
Wed 07:27:16 PM 38.6567 -81.6986 259° West 426 490 27,400 -919 Descending Indianapolis Center
Wed 07:28:18 PM 38.6331 -81.8500 259° West 433 498 26,400 -968 Descending Indianapolis Center
Wed 07:29:20 PM 38.6086 -82.0022 258° West 434 499 25,400 -1,065 Descending Indianapolis Center
Wed 07:30:22 PM 38.5789 -82.1861 258° West 441 507 24,200 -677 Descending Indianapolis Center
Wed 07:31:24 PM 38.5547 -82.3350 258° West 430 495 24,000 -145 Descending Indianapolis Center
Wed 07:32:26 PM 38.5306 -82.4808 258° West 422 486 23,900 -484 Descending Indianapolis Center
Wed 07:33:28 PM 38.5050 -82.6392 258° West 432 497 23,000 -435 Descending Indianapolis Center
Wed 07:34:30 PM 38.4803 -82.7869 258° West 429 494 23,000  Level Indianapolis Center
Wed 07:35:32 PM 38.4564 -82.9347 258° West 426 490 23,000  Level Indianapolis Center
Wed 07:36:34 PM 38.4689 -83.1036 275° West 413 475 23,000 -878 Level Indianapolis Center
Wed 07:37:35 PM 38.4956 -83.2497 283° West 419 482 21,200 -1,951 Descending Indianapolis Center
Wed 07:38:37 PM 38.5217 -83.3933 283° West 416 479 19,000 -2,177 Descending Indianapolis Center
Wed 07:39:39 PM 38.5450 -83.5322 282° West 405 466 16,700 -2,274 Descending Indianapolis Center
Wed 07:40:41 PM 38.5692 -83.6650 283° West 390 449 14,300 -2,419 Descending Indianapolis Center
Wed 07:41:43 PM 38.5911 -83.7947 282° West 377 434 11,700 -2,146 Descending Indianapolis Center
Wed 07:42:44 PM 38.6225 -83.9400 286° West 365 420 9,900 -878 Descending Indianapolis Center
Wed 07:43:46 PM 38.6744 -84.0369 304° West 354 407 9,900  Level Indianapolis Center
Wed 07:44:48 PM 38.7317 -84.1506 303° West 370 426 9,900  Level Indianapolis Center
Wed 07:45:50 PM 38.7883 -84.2589 304° West 365 420 9,900  Level Indianapolis Center
Wed 07:46:52 PM 38.8433 -84.3669 303° West 361 415 9,900  Level Indianapolis Center
Wed 07:47:53 PM 38.8994 -84.4761 303° West 361 415 9,900 -146 Level Indianapolis Center
Wed 07:48:55 PM 38.9731 -84.5361 328° Northwest 320 368 9,600 -1,161 Descending Indianapolis Center
Wed 07:49:57 PM 39.0644 -84.5408 358° North 283 326 7,500 -2,000 Descending Indianapolis Center
Wed 07:50:58 PM 39.1364 -84.5447 358° North 264 304 5,500 -1,902 Descending Indianapolis Center
Wed 07:52:00 PM 39.1578 -84.6064 294° West 233 268 3,600 -1,839 Descending Indianapolis Center

Login

Don't have an account? Register now (free) for customized features, flight alerts, and more!